sensor_id;sensor_type;location;lat;lon;timestamp;P1;durP1;ratioP1;P2;durP2;ratioP2
15929;SDS011;8064;51.142;4.780;2023-04-03T00:02:17;3.77;;;2.50;;
15929;SDS011;8064;51.142;4.780;2023-04-03T00:04:43;4.07;;;2.67;;
15929;SDS011;8064;51.142;4.780;2023-04-03T00:07:09;6.43;;;3.00;;
15929;SDS011;8064;51.142;4.780;2023-04-03T00:09:35;5.17;;;3.13;;
15929;SDS011;8064;51.142;4.780;2023-04-03T00:12:01;5.33;;;2.73;;
15929;SDS011;8064;51.142;4.780;2023-04-03T00:14:27;5.63;;;3.07;;
15929;SDS011;8064;51.142;4.780;2023-04-03T00:16:52;4.93;;;2.80;;
15929;SDS011;8064;51.142;4.780;2023-04-03T00:19:18;4.17;;;3.00;;
15929;SDS011;8064;51.142;4.780;2023-04-03T00:21:44;5.10;;;2.50;;
15929;SDS011;8064;51.142;4.780;2023-04-03T00:24:10;7.43;;;4.20;;
15929;SDS011;8064;51.142;4.780;2023-04-03T00:26:36;5.73;;;3.30;;
15929;SDS011;8064;51.142;4.780;2023-04-03T00:29:02;4.93;;;3.07;;
15929;SDS011;8064;51.142;4.780;2023-04-03T00:31:28;6.23;;;3.40;;
15929;SDS011;8064;51.142;4.780;2023-04-03T00:33:54;5.37;;;3.47;;
15929;SDS011;8064;51.142;4.780;2023-04-03T00:36:20;4.77;;;3.33;;
15929;SDS011;8064;51.142;4.780;2023-04-03T00:38:46;4.13;;;2.93;;
15929;SDS011;8064;51.142;4.780;2023-04-03T00:41:11;5.03;;;3.20;;
15929;SDS011;8064;51.142;4.780;2023-04-03T00:43:37;4.77;;;2.93;;
15929;SDS011;8064;51.142;4.780;2023-04-03T00:46:03;5.80;;;2.90;;
15929;SDS011;8064;51.142;4.780;2023-04-03T00:48:32;6.53;;;3.23;;
15929;SDS011;8064;51.142;4.780;2023-04-03T00:50:58;5.50;;;3.23;;
15929;SDS011;8064;51.142;4.780;2023-04-03T00:53:26;4.63;;;3.20;;
15929;SDS011;8064;51.142;4.780;2023-04-03T00:55:56;4.97;;;3.13;;
15929;SDS011;8064;51.142;4.780;2023-04-03T00:58:23;4.30;;;3.00;;
15929;SDS011;8064;51.142;4.780;2023-04-03T01:00:57;4.17;;;3.07;;
15929;SDS011;8064;51.142;4.780;2023-04-03T01:03:24;3.60;;;3.03;;
15929;SDS011;8064;51.142;4.780;2023-04-03T01:05:50;5.80;;;3.13;;
15929;SDS011;8064;51.142;4.780;2023-04-03T01:08:16;5.03;;;3.17;;
15929;SDS011;8064;51.142;4.780;2023-04-03T01:10:42;6.17;;;3.40;;
15929;SDS011;8064;51.142;4.780;2023-04-03T01:13:22;4.93;;;3.13;;
15929;SDS011;8064;51.142;4.780;2023-04-03T01:15:51;5.00;;;3.00;;
15929;SDS011;8064;51.142;4.780;2023-04-03T01:18:17;3.97;;;2.93;;
15929;SDS011;8064;51.142;4.780;2023-04-03T01:26:27;3.27;;;2.57;;
15929;SDS011;8064;51.142;4.780;2023-04-03T01:28:54;4.80;;;2.90;;
15929;SDS011;8064;51.142;4.780;2023-04-03T01:31:24;5.67;;;3.20;;
15929;SDS011;8064;51.142;4.780;2023-04-03T01:33:52;4.53;;;3.20;;
15929;SDS011;8064;51.142;4.780;2023-04-03T01:36:20;4.37;;;2.90;;
15929;SDS011;8064;51.142;4.780;2023-04-03T01:38:49;3.47;;;2.70;;
15929;SDS011;8064;51.142;4.780;2023-04-03T01:41:16;4.07;;;2.90;;
15929;SDS011;8064;51.142;4.780;2023-04-03T01:43:42;3.87;;;3.00;;
15929;SDS011;8064;51.142;4.780;2023-04-03T01:46:08;5.67;;;3.17;;
15929;SDS011;8064;51.142;4.780;2023-04-03T01:48:34;3.53;;;3.07;;
15929;SDS011;8064;51.142;4.780;2023-04-03T01:51:00;5.47;;;3.27;;
15929;SDS011;8064;51.142;4.780;2023-04-03T01:53:26;5.70;;;3.20;;
15929;SDS011;8064;51.142;4.780;2023-04-03T01:55:52;3.83;;;2.77;;
15929;SDS011;8064;51.142;4.780;2023-04-03T01:58:17;4.90;;;3.37;;
15929;SDS011;8064;51.142;4.780;2023-04-03T02:00:43;5.70;;;3.10;;
15929;SDS011;8064;51.142;4.780;2023-04-03T02:03:09;3.77;;;3.30;;
15929;SDS011;8064;51.142;4.780;2023-04-03T02:05:35;5.70;;;3.20;;
15929;SDS011;8064;51.142;4.780;2023-04-03T02:08:01;5.40;;;3.30;;
15929;SDS011;8064;51.142;4.780;2023-04-03T02:10:26;3.93;;;2.90;;
15929;SDS011;8064;51.142;4.780;2023-04-03T02:12:52;4.17;;;2.93;;
15929;SDS011;8064;51.142;4.780;2023-04-03T02:15:18;4.40;;;3.20;;
15929;SDS011;8064;51.142;4.780;2023-04-03T02:17:44;4.10;;;3.23;;
15929;SDS011;8064;51.142;4.780;2023-04-03T02:20:09;5.77;;;3.20;;
15929;SDS011;8064;51.142;4.780;2023-04-03T02:22:36;4.27;;;2.87;;
15929;SDS011;8064;51.142;4.780;2023-04-03T02:25:01;4.77;;;3.60;;
15929;SDS011;8064;51.142;4.780;2023-04-03T02:27:27;5.33;;;3.30;;
15929;SDS011;8064;51.142;4.780;2023-04-03T02:29:53;4.03;;;2.80;;
15929;SDS011;8064;51.142;4.780;2023-04-03T02:32:19;6.60;;;3.90;;
15929;SDS011;8064;51.142;4.780;2023-04-03T02:34:45;3.57;;;3.13;;
15929;SDS011;8064;51.142;4.780;2023-04-03T02:37:10;6.17;;;3.27;;
15929;SDS011;8064;51.142;4.780;2023-04-03T02:39:36;4.07;;;2.83;;
15929;SDS011;8064;51.142;4.780;2023-04-03T02:42:02;8.20;;;3.80;;
15929;SDS011;8064;51.142;4.780;2023-04-03T02:44:28;7.43;;;3.50;;
15929;SDS011;8064;51.142;4.780;2023-04-03T02:46:54;5.97;;;4.20;;
15929;SDS011;8064;51.142;4.780;2023-04-03T02:49:20;6.27;;;3.60;;
15929;SDS011;8064;51.142;4.780;2023-04-03T02:51:46;5.80;;;3.90;;
15929;SDS011;8064;51.142;4.780;2023-04-03T02:54:12;6.93;;;3.83;;
15929;SDS011;8064;51.142;4.780;2023-04-03T02:56:38;4.90;;;3.90;;
15929;SDS011;8064;51.142;4.780;2023-04-03T02:59:04;7.00;;;3.97;;
15929;SDS011;8064;51.142;4.780;2023-04-03T03:01:31;5.83;;;3.93;;
15929;SDS011;8064;51.142;4.780;2023-04-03T03:03:58;7.20;;;4.30;;
15929;SDS011;8064;51.142;4.780;2023-04-03T03:06:24;6.40;;;4.03;;
15929;SDS011;8064;51.142;4.780;2023-04-03T03:08:51;4.80;;;3.67;;
15929;SDS011;8064;51.142;4.780;2023-04-03T03:11:17;4.63;;;3.93;;
15929;SDS011;8064;51.142;4.780;2023-04-03T03:13:42;5.80;;;3.70;;
15929;SDS011;8064;51.142;4.780;2023-04-03T03:16:09;5.50;;;3.50;;
15929;SDS011;8064;51.142;4.780;2023-04-03T03:18:35;5.53;;;4.63;;
15929;SDS011;8064;51.142;4.780;2023-04-03T03:21:01;7.47;;;3.63;;
15929;SDS011;8064;51.142;4.780;2023-04-03T03:23:29;4.90;;;3.77;;
15929;SDS011;8064;51.142;4.780;2023-04-03T03:25:58;5.00;;;3.97;;
15929;SDS011;8064;51.142;4.780;2023-04-03T03:28:25;6.87;;;3.43;;
15929;SDS011;8064;51.142;4.780;2023-04-03T03:30:51;4.63;;;3.57;;
15929;SDS011;8064;51.142;4.780;2023-04-03T03:33:18;6.13;;;3.77;;
15929;SDS011;8064;51.142;4.780;2023-04-03T03:35:44;5.03;;;3.47;;
15929;SDS011;8064;51.142;4.780;2023-04-03T03:38:10;6.20;;;3.33;;
15929;SDS011;8064;51.142;4.780;2023-04-03T03:40:36;4.50;;;3.70;;
15929;SDS011;8064;51.142;4.780;2023-04-03T03:43:02;4.93;;;3.60;;
15929;SDS011;8064;51.142;4.780;2023-04-03T03:45:28;4.43;;;3.27;;
15929;SDS011;8064;51.142;4.780;2023-04-03T03:47:54;5.17;;;3.50;;
15929;SDS011;8064;51.142;4.780;2023-04-03T03:50:20;7.07;;;3.93;;
15929;SDS011;8064;51.142;4.780;2023-04-03T03:52:46;3.93;;;2.87;;
15929;SDS011;8064;51.142;4.780;2023-04-03T03:55:11;5.87;;;3.30;;
15929;SDS011;8064;51.142;4.780;2023-04-03T03:57:37;6.37;;;3.50;;
15929;SDS011;8064;51.142;4.780;2023-04-03T04:00:03;3.97;;;3.20;;
15929;SDS011;8064;51.142;4.780;2023-04-03T04:02:30;4.60;;;3.57;;
15929;SDS011;8064;51.142;4.780;2023-04-03T04:04:56;6.10;;;3.97;;
15929;SDS011;8064;51.142;4.780;2023-04-03T04:07:21;4.73;;;3.30;;
15929;SDS011;8064;51.142;4.780;2023-04-03T04:09:47;5.27;;;3.50;;
15929;SDS011;8064;51.142;4.780;2023-04-03T04:12:13;6.73;;;3.77;;
15929;SDS011;8064;51.142;4.780;2023-04-03T04:14:39;4.60;;;3.50;;
15929;SDS011;8064;51.142;4.780;2023-04-03T04:17:05;7.27;;;3.90;;
15929;SDS011;8064;51.142;4.780;2023-04-03T04:19:30;5.13;;;3.70;;
15929;SDS011;8064;51.142;4.780;2023-04-03T04:21:56;5.97;;;3.80;;
15929;SDS011;8064;51.142;4.780;2023-04-03T04:24:22;5.97;;;3.80;;
15929;SDS011;8064;51.142;4.780;2023-04-03T04:26:48;6.77;;;4.43;;
15929;SDS011;8064;51.142;4.780;2023-04-03T04:29:14;5.90;;;3.60;;
15929;SDS011;8064;51.142;4.780;2023-04-03T04:31:39;7.70;;;4.23;;
15929;SDS011;8064;51.142;4.780;2023-04-03T04:34:05;5.23;;;3.57;;
15929;SDS011;8064;51.142;4.780;2023-04-03T04:36:31;8.27;;;3.87;;
15929;SDS011;8064;51.142;4.780;2023-04-03T04:38:57;7.73;;;3.87;;
15929;SDS011;8064;51.142;4.780;2023-04-03T04:41:23;7.50;;;3.83;;
15929;SDS011;8064;51.142;4.780;2023-04-03T04:43:49;5.77;;;4.00;;
15929;SDS011;8064;51.142;4.780;2023-04-03T04:46:15;5.47;;;3.87;;
15929;SDS011;8064;51.142;4.780;2023-04-03T04:48:41;5.97;;;4.07;;
15929;SDS011;8064;51.142;4.780;2023-04-03T04:51:07;6.33;;;4.00;;
15929;SDS011;8064;51.142;4.780;2023-04-03T04:53:33;5.90;;;4.00;;
15929;SDS011;8064;51.142;4.780;2023-04-03T04:55:58;5.13;;;4.20;;
15929;SDS011;8064;51.142;4.780;2023-04-03T04:58:24;5.03;;;4.03;;
15929;SDS011;8064;51.142;4.780;2023-04-03T05:00:58;11.37;;;4.30;;
15929;SDS011;8064;51.142;4.780;2023-04-03T05:03:25;5.50;;;4.00;;
15929;SDS011;8064;51.142;4.780;2023-04-03T05:05:50;6.47;;;4.53;;
15929;SDS011;8064;51.142;4.780;2023-04-03T05:08:16;6.17;;;4.40;;
15929;SDS011;8064;51.142;4.780;2023-04-03T05:10:42;5.80;;;4.37;;
15929;SDS011;8064;51.142;4.780;2023-04-03T05:13:09;5.57;;;4.83;;
15929;SDS011;8064;51.142;4.780;2023-04-03T05:15:35;6.67;;;4.53;;
15929;SDS011;8064;51.142;4.780;2023-04-03T05:18:01;5.43;;;4.20;;
15929;SDS011;8064;51.142;4.780;2023-04-03T05:20:26;5.37;;;4.30;;
15929;SDS011;8064;51.142;4.780;2023-04-03T05:22:52;5.13;;;4.63;;
15929;SDS011;8064;51.142;4.780;2023-04-03T05:25:18;5.43;;;4.47;;
15929;SDS011;8064;51.142;4.780;2023-04-03T05:27:43;8.87;;;4.63;;
15929;SDS011;8064;51.142;4.780;2023-04-03T05:30:09;6.80;;;4.43;;
15929;SDS011;8064;51.142;4.780;2023-04-03T05:32:35;7.03;;;4.50;;
15929;SDS011;8064;51.142;4.780;2023-04-03T05:35:01;6.63;;;4.27;;
15929;SDS011;8064;51.142;4.780;2023-04-03T05:37:27;5.27;;;4.47;;
15929;SDS011;8064;51.142;4.780;2023-04-03T05:39:53;5.50;;;4.67;;
15929;SDS011;8064;51.142;4.780;2023-04-03T05:42:19;4.93;;;4.20;;
15929;SDS011;8064;51.142;4.780;2023-04-03T05:44:45;10.13;;;4.57;;
15929;SDS011;8064;51.142;4.780;2023-04-03T05:47:12;6.67;;;4.30;;
15929;SDS011;8064;51.142;4.780;2023-04-03T05:49:38;5.50;;;4.50;;
15929;SDS011;8064;51.142;4.780;2023-04-03T05:52:06;4.83;;;4.00;;
15929;SDS011;8064;51.142;4.780;2023-04-03T05:54:47;4.87;;;4.37;;
15929;SDS011;8064;51.142;4.780;2023-04-03T05:57:14;5.37;;;4.43;;
15929;SDS011;8064;51.142;4.780;2023-04-03T05:59:41;6.27;;;4.20;;
15929;SDS011;8064;51.142;4.780;2023-04-03T06:02:10;4.80;;;3.83;;
15929;SDS011;8064;51.142;4.780;2023-04-03T06:04:38;7.50;;;3.90;;
15929;SDS011;8064;51.142;4.780;2023-04-03T06:07:04;6.00;;;3.70;;
15929;SDS011;8064;51.142;4.780;2023-04-03T06:09:30;7.23;;;4.43;;
15929;SDS011;8064;51.142;4.780;2023-04-03T06:11:56;5.33;;;4.10;;
15929;SDS011;8064;51.142;4.780;2023-04-03T06:14:24;7.73;;;4.07;;
15929;SDS011;8064;51.142;4.780;2023-04-03T06:16:51;5.57;;;3.60;;
15929;SDS011;8064;51.142;4.780;2023-04-03T06:19:17;7.37;;;4.27;;
15929;SDS011;8064;51.142;4.780;2023-04-03T06:21:43;5.97;;;3.83;;
15929;SDS011;8064;51.142;4.780;2023-04-03T06:24:09;5.57;;;3.60;;
15929;SDS011;8064;51.142;4.780;2023-04-03T06:26:37;7.20;;;3.23;;
15929;SDS011;8064;51.142;4.780;2023-04-03T06:29:03;7.10;;;3.33;;
15929;SDS011;8064;51.142;4.780;2023-04-03T06:31:29;4.67;;;2.83;;
15929;SDS011;8064;51.142;4.780;2023-04-03T06:33:55;4.73;;;3.40;;
15929;SDS011;8064;51.142;4.780;2023-04-03T06:36:21;5.03;;;3.57;;
15929;SDS011;8064;51.142;4.780;2023-04-03T06:38:47;4.37;;;3.40;;
15929;SDS011;8064;51.142;4.780;2023-04-03T06:41:13;5.47;;;3.23;;
15929;SDS011;8064;51.142;4.780;2023-04-03T06:43:39;4.93;;;3.63;;
15929;SDS011;8064;51.142;4.780;2023-04-03T06:46:05;3.80;;;2.90;;
15929;SDS011;8064;51.142;4.780;2023-04-03T06:48:31;4.60;;;3.13;;
15929;SDS011;8064;51.142;4.780;2023-04-03T06:50:57;4.57;;;3.23;;
15929;SDS011;8064;51.142;4.780;2023-04-03T06:53:23;5.37;;;3.47;;
15929;SDS011;8064;51.142;4.780;2023-04-03T06:55:49;5.63;;;3.60;;
15929;SDS011;8064;51.142;4.780;2023-04-03T06:58:15;5.87;;;3.27;;
15929;SDS011;8064;51.142;4.780;2023-04-03T07:00:42;6.10;;;3.23;;
15929;SDS011;8064;51.142;4.780;2023-04-03T07:03:08;6.70;;;3.97;;
15929;SDS011;8064;51.142;4.780;2023-04-03T07:05:34;6.83;;;3.80;;
15929;SDS011;8064;51.142;4.780;2023-04-03T07:08:00;8.90;;;5.13;;
15929;SDS011;8064;51.142;4.780;2023-04-03T07:10:26;5.43;;;3.17;;
15929;SDS011;8064;51.142;4.780;2023-04-03T07:12:52;4.70;;;3.10;;
15929;SDS011;8064;51.142;4.780;2023-04-03T07:15:18;4.30;;;3.40;;
15929;SDS011;8064;51.142;4.780;2023-04-03T07:17:43;3.97;;;3.23;;
15929;SDS011;8064;51.142;4.780;2023-04-03T07:20:09;5.30;;;2.97;;
15929;SDS011;8064;51.142;4.780;2023-04-03T07:22:36;4.57;;;3.10;;
15929;SDS011;8064;51.142;4.780;2023-04-03T07:25:02;6.70;;;3.90;;
15929;SDS011;8064;51.142;4.780;2023-04-03T07:27:28;5.80;;;3.53;;
15929;SDS011;8064;51.142;4.780;2023-04-03T07:29:54;6.43;;;3.60;;
15929;SDS011;8064;51.142;4.780;2023-04-03T07:32:21;4.23;;;3.40;;
15929;SDS011;8064;51.142;4.780;2023-04-03T07:34:46;5.27;;;3.23;;
15929;SDS011;8064;51.142;4.780;2023-04-03T07:37:12;4.03;;;3.63;;
15929;SDS011;8064;51.142;4.780;2023-04-03T07:39:38;6.07;;;3.57;;
15929;SDS011;8064;51.142;4.780;2023-04-03T07:42:04;4.13;;;3.10;;
15929;SDS011;8064;51.142;4.780;2023-04-03T07:44:30;5.03;;;3.97;;
15929;SDS011;8064;51.142;4.780;2023-04-03T07:46:56;4.80;;;3.23;;
15929;SDS011;8064;51.142;4.780;2023-04-03T07:49:21;6.47;;;3.10;;
15929;SDS011;8064;51.142;4.780;2023-04-03T07:51:49;3.87;;;3.17;;
15929;SDS011;8064;51.142;4.780;2023-04-03T07:54:15;7.40;;;3.57;;
15929;SDS011;8064;51.142;4.780;2023-04-03T07:56:41;4.07;;;3.67;;
15929;SDS011;8064;51.142;4.780;2023-04-03T07:59:08;4.50;;;3.77;;
15929;SDS011;8064;51.142;4.780;2023-04-03T08:01:35;3.67;;;3.37;;
15929;SDS011;8064;51.142;4.780;2023-04-03T08:04:01;5.20;;;3.43;;
15929;SDS011;8064;51.142;4.780;2023-04-03T08:06:27;4.97;;;3.90;;
15929;SDS011;8064;51.142;4.780;2023-04-03T08:08:55;4.67;;;3.23;;
15929;SDS011;8064;51.142;4.780;2023-04-03T08:11:21;3.90;;;3.57;;
15929;SDS011;8064;51.142;4.780;2023-04-03T08:13:48;4.90;;;3.40;;
15929;SDS011;8064;51.142;4.780;2023-04-03T08:16:16;3.97;;;3.50;;
15929;SDS011;8064;51.142;4.780;2023-04-03T08:18:45;4.73;;;4.17;;
15929;SDS011;8064;51.142;4.780;2023-04-03T08:21:11;6.20;;;4.23;;
15929;SDS011;8064;51.142;4.780;2023-04-03T08:23:38;4.57;;;3.73;;
15929;SDS011;8064;51.142;4.780;2023-04-03T08:26:07;5.17;;;4.00;;
15929;SDS011;8064;51.142;4.780;2023-04-03T08:28:34;6.27;;;4.13;;
15929;SDS011;8064;51.142;4.780;2023-04-03T08:33:45;7.07;;;4.23;;
15929;SDS011;8064;51.142;4.780;2023-04-03T08:36:20;5.73;;;3.97;;
15929;SDS011;8064;51.142;4.780;2023-04-03T08:39:02;4.77;;;4.30;;
15929;SDS011;8064;51.142;4.780;2023-04-03T08:41:32;5.17;;;4.43;;
15929;SDS011;8064;51.142;4.780;2023-04-03T08:44:02;5.03;;;4.53;;
15929;SDS011;8064;51.142;4.780;2023-04-03T08:46:39;6.23;;;4.00;;
15929;SDS011;8064;51.142;4.780;2023-04-03T08:49:21;4.57;;;4.17;;
15929;SDS011;8064;51.142;4.780;2023-04-03T08:51:48;5.00;;;3.90;;
15929;SDS011;8064;51.142;4.780;2023-04-03T08:57:03;4.57;;;4.17;;
15929;SDS011;8064;51.142;4.780;2023-04-03T08:59:33;4.63;;;4.23;;
15929;SDS011;8064;51.142;4.780;2023-04-03T09:02:04;4.27;;;3.83;;
15929;SDS011;8064;51.142;4.780;2023-04-03T09:04:43;4.40;;;4.00;;
15929;SDS011;8064;51.142;4.780;2023-04-03T09:07:13;4.67;;;4.23;;
15929;SDS011;8064;51.142;4.780;2023-04-03T09:09:45;5.07;;;4.67;;
15929;SDS011;8064;51.142;4.780;2023-04-03T09:12:17;6.17;;;4.53;;
15929;SDS011;8064;51.142;4.780;2023-04-03T09:17:52;5.27;;;4.50;;
15929;SDS011;8064;51.142;4.780;2023-04-03T09:22:51;5.70;;;4.23;;
15929;SDS011;8064;51.142;4.780;2023-04-03T09:25:21;5.77;;;5.20;;
15929;SDS011;8064;51.142;4.780;2023-04-03T09:27:48;6.37;;;4.70;;
15929;SDS011;8064;51.142;4.780;2023-04-03T09:30:18;5.53;;;5.03;;
15929;SDS011;8064;51.142;4.780;2023-04-03T09:32:47;5.07;;;4.57;;
15929;SDS011;8064;51.142;4.780;2023-04-03T09:35:16;5.67;;;5.00;;
15929;SDS011;8064;51.142;4.780;2023-04-03T09:37:46;5.00;;;4.50;;
15929;SDS011;8064;51.142;4.780;2023-04-03T09:42:51;5.10;;;4.63;;
15929;SDS011;8064;51.142;4.780;2023-04-03T09:48:05;5.37;;;4.90;;
15929;SDS011;8064;51.142;4.780;2023-04-03T09:50:32;5.70;;;5.17;;
15929;SDS011;8064;51.142;4.780;2023-04-03T09:53:02;5.53;;;4.80;;
15929;SDS011;8064;51.142;4.780;2023-04-03T09:55:32;5.50;;;5.00;;
15929;SDS011;8064;51.142;4.780;2023-04-03T09:58:20;4.73;;;4.33;;
15929;SDS011;8064;51.142;4.780;2023-04-03T10:03:45;5.93;;;4.83;;
15929;SDS011;8064;51.142;4.780;2023-04-03T10:06:41;4.90;;;4.40;;
15929;SDS011;8064;51.142;4.780;2023-04-03T10:09:23;5.07;;;4.63;;
15929;SDS011;8064;51.142;4.780;2023-04-03T10:12:01;5.00;;;4.50;;
15929;SDS011;8064;51.142;4.780;2023-04-03T10:14:30;4.97;;;4.47;;
15929;SDS011;8064;51.142;4.780;2023-04-03T10:31:31;5.40;;;4.90;;
15929;SDS011;8064;51.142;4.780;2023-04-03T10:36:34;5.73;;;4.47;;
15929;SDS011;8064;51.142;4.780;2023-04-03T10:41:35;5.03;;;4.43;;
15929;SDS011;8064;51.142;4.780;2023-04-03T10:50:15;4.63;;;4.27;;
15929;SDS011;8064;51.142;4.780;2023-04-03T10:52:57;5.17;;;4.87;;
15929;SDS011;8064;51.142;4.780;2023-04-03T10:58:21;4.53;;;3.77;;
15929;SDS011;8064;51.142;4.780;2023-04-03T11:00:54;4.30;;;3.90;;
15929;SDS011;8064;51.142;4.780;2023-04-03T11:06:07;4.33;;;4.03;;
15929;SDS011;8064;51.142;4.780;2023-04-03T11:11:22;3.97;;;3.67;;
15929;SDS011;8064;51.142;4.780;2023-04-03T11:13:53;3.63;;;3.43;;
15929;SDS011;8064;51.142;4.780;2023-04-03T11:16:27;3.63;;;3.43;;
15929;SDS011;8064;51.142;4.780;2023-04-03T11:18:57;3.50;;;3.30;;
15929;SDS011;8064;51.142;4.780;2023-04-03T11:21:28;3.67;;;3.37;;
15929;SDS011;8064;51.142;4.780;2023-04-03T11:23:57;3.70;;;3.50;;
15929;SDS011;8064;51.142;4.780;2023-04-03T11:26:25;3.90;;;3.60;;
15929;SDS011;8064;51.142;4.780;2023-04-03T11:28:59;4.63;;;4.10;;
15929;SDS011;8064;51.142;4.780;2023-04-03T11:34:24;3.67;;;3.33;;
15929;SDS011;8064;51.142;4.780;2023-04-03T11:43:02;4.07;;;3.77;;
15929;SDS011;8064;51.142;4.780;2023-04-03T11:48:01;4.03;;;3.50;;
15929;SDS011;8064;51.142;4.780;2023-04-03T11:58:15;4.27;;;3.87;;
15929;SDS011;8064;51.142;4.780;2023-04-03T12:08:45;4.00;;;3.70;;
15929;SDS011;8064;51.142;4.780;2023-04-03T12:11:15;4.20;;;3.77;;
15929;SDS011;8064;51.142;4.780;2023-04-03T12:16:42;3.60;;;3.40;;
15929;SDS011;8064;51.142;4.780;2023-04-03T12:29:55;4.90;;;4.50;;
15929;SDS011;8064;51.142;4.780;2023-04-03T12:32:34;4.27;;;3.97;;
15929;SDS011;8064;51.142;4.780;2023-04-03T12:46:53;3.60;;;3.30;;
15929;SDS011;8064;51.142;4.780;2023-04-03T12:51:55;3.57;;;3.27;;
15929;SDS011;8064;51.142;4.780;2023-04-03T12:54:23;5.23;;;3.40;;
15929;SDS011;8064;51.142;4.780;2023-04-03T12:57:08;4.97;;;4.03;;
15929;SDS011;8064;51.142;4.780;2023-04-03T12:59:35;3.60;;;3.30;;
15929;SDS011;8064;51.142;4.780;2023-04-03T13:02:03;4.10;;;3.57;;
15929;SDS011;8064;51.142;4.780;2023-04-03T13:04:50;3.60;;;3.37;;
15929;SDS011;8064;51.142;4.780;2023-04-03T13:07:21;3.53;;;3.33;;
15929;SDS011;8064;51.142;4.780;2023-04-03T13:12:45;3.97;;;3.67;;
15929;SDS011;8064;51.142;4.780;2023-04-03T13:15:28;3.47;;;3.20;;
15929;SDS011;8064;51.142;4.780;2023-04-03T13:17:55;3.67;;;3.37;;
15929;SDS011;8064;51.142;4.780;2023-04-03T13:20:24;3.70;;;3.40;;
15929;SDS011;8064;51.142;4.780;2023-04-03T13:25:32;4.17;;;3.67;;
15929;SDS011;8064;51.142;4.780;2023-04-03T13:27:59;3.30;;;3.10;;
15929;SDS011;8064;51.142;4.780;2023-04-03T13:33:22;3.63;;;3.33;;
15929;SDS011;8064;51.142;4.780;2023-04-03T13:39:00;3.67;;;3.33;;
15929;SDS011;8064;51.142;4.780;2023-04-03T13:41:30;3.77;;;3.00;;
15929;SDS011;8064;51.142;4.780;2023-04-03T13:46:51;3.53;;;3.33;;
15929;SDS011;8064;51.142;4.780;2023-04-03T13:49:21;4.83;;;3.27;;
15929;SDS011;8064;51.142;4.780;2023-04-03T13:55:16;3.27;;;3.07;;
15929;SDS011;8064;51.142;4.780;2023-04-03T14:03:44;3.30;;;3.07;;
15929;SDS011;8064;51.142;4.780;2023-04-03T14:06:14;3.33;;;2.93;;
15929;SDS011;8064;51.142;4.780;2023-04-03T14:08:41;3.50;;;3.20;;
15929;SDS011;8064;51.142;4.780;2023-04-03T14:11:10;3.47;;;3.17;;
15929;SDS011;8064;51.142;4.780;2023-04-03T14:13:48;3.37;;;3.07;;
15929;SDS011;8064;51.142;4.780;2023-04-03T14:16:16;3.20;;;3.00;;
15929;SDS011;8064;51.142;4.780;2023-04-03T14:18:46;3.10;;;2.90;;
15929;SDS011;8064;51.142;4.780;2023-04-03T14:21:14;3.80;;;3.13;;
15929;SDS011;8064;51.142;4.780;2023-04-03T14:23:41;3.70;;;3.40;;
15929;SDS011;8064;51.142;4.780;2023-04-03T14:26:09;3.30;;;3.00;;
15929;SDS011;8064;51.142;4.780;2023-04-03T14:28:37;3.53;;;3.00;;
15929;SDS011;8064;51.142;4.780;2023-04-03T14:31:05;3.10;;;2.80;;
15929;SDS011;8064;51.142;4.780;2023-04-03T14:33:32;3.43;;;3.13;;
15929;SDS011;8064;51.142;4.780;2023-04-03T14:36:00;3.70;;;3.40;;
15929;SDS011;8064;51.142;4.780;2023-04-03T14:38:28;3.73;;;3.43;;
15929;SDS011;8064;51.142;4.780;2023-04-03T14:40:56;3.70;;;3.40;;
15929;SDS011;8064;51.142;4.780;2023-04-03T14:43:23;3.77;;;3.40;;
15929;SDS011;8064;51.142;4.780;2023-04-03T14:45:50;3.40;;;3.10;;
15929;SDS011;8064;51.142;4.780;2023-04-03T14:48:18;3.63;;;3.33;;
15929;SDS011;8064;51.142;4.780;2023-04-03T14:50:46;3.40;;;3.10;;
15929;SDS011;8064;51.142;4.780;2023-04-03T14:53:14;3.33;;;2.90;;
15929;SDS011;8064;51.142;4.780;2023-04-03T14:55:41;3.10;;;2.83;;
15929;SDS011;8064;51.142;4.780;2023-04-03T14:58:12;3.43;;;3.13;;
15929;SDS011;8064;51.142;4.780;2023-04-03T15:00:39;5.53;;;3.23;;
15929;SDS011;8064;51.142;4.780;2023-04-03T15:03:05;2.97;;;2.73;;
15929;SDS011;8064;51.142;4.780;2023-04-03T15:05:31;3.67;;;3.07;;
15929;SDS011;8064;51.142;4.780;2023-04-03T15:07:57;3.47;;;3.00;;
15929;SDS011;8064;51.142;4.780;2023-04-03T15:10:25;3.10;;;2.90;;
15929;SDS011;8064;51.142;4.780;2023-04-03T15:12:53;3.33;;;3.03;;
15929;SDS011;8064;51.142;4.780;2023-04-03T15:15:20;5.07;;;3.53;;
15929;SDS011;8064;51.142;4.780;2023-04-03T15:18:00;4.87;;;3.60;;
15929;SDS011;8064;51.142;4.780;2023-04-03T15:20:26;4.37;;;2.90;;
15929;SDS011;8064;51.142;4.780;2023-04-03T15:22:55;4.13;;;3.83;;
15929;SDS011;8064;51.142;4.780;2023-04-03T15:25:22;3.37;;;3.07;;
15929;SDS011;8064;51.142;4.780;2023-04-03T15:27:48;3.90;;;3.50;;
15929;SDS011;8064;51.142;4.780;2023-04-03T15:30:15;3.67;;;3.37;;
15929;SDS011;8064;51.142;4.780;2023-04-03T15:32:42;3.40;;;3.10;;
15929;SDS011;8064;51.142;4.780;2023-04-03T15:35:08;5.57;;;3.20;;
15929;SDS011;8064;51.142;4.780;2023-04-03T15:37:34;7.33;;;3.33;;
15929;SDS011;8064;51.142;4.780;2023-04-03T15:40:00;5.60;;;3.53;;
15929;SDS011;8064;51.142;4.780;2023-04-03T15:42:26;3.73;;;3.37;;
15929;SDS011;8064;51.142;4.780;2023-04-03T15:44:52;3.63;;;3.33;;
15929;SDS011;8064;51.142;4.780;2023-04-03T15:47:17;3.03;;;2.73;;
15929;SDS011;8064;51.142;4.780;2023-04-03T15:49:43;3.83;;;2.90;;
15929;SDS011;8064;51.142;4.780;2023-04-03T15:52:09;3.40;;;3.10;;
15929;SDS011;8064;51.142;4.780;2023-04-03T15:54:35;4.87;;;3.23;;
15929;SDS011;8064;51.142;4.780;2023-04-03T15:57:01;3.37;;;3.00;;
15929;SDS011;8064;51.142;4.780;2023-04-03T15:59:26;4.60;;;3.73;;
15929;SDS011;8064;51.142;4.780;2023-04-03T16:01:54;2.87;;;2.67;;
15929;SDS011;8064;51.142;4.780;2023-04-03T16:04:20;5.37;;;3.37;;
15929;SDS011;8064;51.142;4.780;2023-04-03T16:06:46;3.80;;;3.37;;
15929;SDS011;8064;51.142;4.780;2023-04-03T16:09:12;3.27;;;3.03;;
15929;SDS011;8064;51.142;4.780;2023-04-03T16:11:38;4.13;;;2.90;;
15929;SDS011;8064;51.142;4.780;2023-04-03T16:14:05;2.87;;;2.60;;
15929;SDS011;8064;51.142;4.780;2023-04-03T16:16:31;4.83;;;3.10;;
15929;SDS011;8064;51.142;4.780;2023-04-03T16:18:57;3.30;;;3.00;;
15929;SDS011;8064;51.142;4.780;2023-04-03T16:21:23;5.43;;;3.30;;
15929;SDS011;8064;51.142;4.780;2023-04-03T16:23:50;4.77;;;3.07;;
15929;SDS011;8064;51.142;4.780;2023-04-03T16:26:15;5.83;;;2.83;;
15929;SDS011;8064;51.142;4.780;2023-04-03T16:28:42;3.20;;;2.90;;
15929;SDS011;8064;51.142;4.780;2023-04-03T16:31:08;4.60;;;3.17;;
15929;SDS011;8064;51.142;4.780;2023-04-03T16:33:35;3.30;;;2.93;;
15929;SDS011;8064;51.142;4.780;2023-04-03T16:36:02;3.60;;;3.00;;
15929;SDS011;8064;51.142;4.780;2023-04-03T16:38:29;3.33;;;2.73;;
15929;SDS011;8064;51.142;4.780;2023-04-03T16:40:54;2.80;;;2.60;;
15929;SDS011;8064;51.142;4.780;2023-04-03T16:43:24;4.03;;;2.97;;
15929;SDS011;8064;51.142;4.780;2023-04-03T16:45:50;3.07;;;2.40;;
15929;SDS011;8064;51.142;4.780;2023-04-03T16:48:16;3.90;;;2.30;;
15929;SDS011;8064;51.142;4.780;2023-04-03T16:50:45;3.73;;;2.53;;
15929;SDS011;8064;51.142;4.780;2023-04-03T16:53:13;3.97;;;3.00;;
15929;SDS011;8064;51.142;4.780;2023-04-03T16:55:38;2.93;;;2.67;;
15929;SDS011;8064;51.142;4.780;2023-04-03T16:58:05;4.57;;;2.87;;
15929;SDS011;8064;51.142;4.780;2023-04-03T17:00:31;2.60;;;2.40;;
15929;SDS011;8064;51.142;4.780;2023-04-03T17:02:57;4.27;;;2.80;;
15929;SDS011;8064;51.142;4.780;2023-04-03T17:05:23;2.60;;;2.40;;
15929;SDS011;8064;51.142;4.780;2023-04-03T17:07:49;3.40;;;2.47;;
15929;SDS011;8064;51.142;4.780;2023-04-03T17:10:15;3.57;;;2.60;;
15929;SDS011;8064;51.142;4.780;2023-04-03T17:12:41;4.10;;;2.87;;
15929;SDS011;8064;51.142;4.780;2023-04-03T17:15:07;2.87;;;2.30;;
15929;SDS011;8064;51.142;4.780;2023-04-03T17:17:33;3.83;;;2.70;;
15929;SDS011;8064;51.142;4.780;2023-04-03T17:19:59;3.57;;;2.47;;
15929;SDS011;8064;51.142;4.780;2023-04-03T17:22:25;2.50;;;2.30;;